Terminal Aerodrome Forecast
Issued by NWS Wilmington, OH

Home | Current Version | Previous Version | Text Only | Print | Product List | Glossary On
Versions: 1 2 3 4 5 6 7 8 9 10 11 12 13 14 15 16 17 18 19 20 21 22 23 24
927
FTUS41 KILN 281121
TAFCVG
TAF
KCVG 281121Z 2812/2918 16004KT P6SM FEW250
     FM281600 19008G17KT P6SM FEW050 SCT250
     FM290000 19005KT P6SM SCT250
     FM290700 19005KT P6SM FEW250 WS020/22035KT
     FM291200 20010KT P6SM FEW250
     FM291500 22012G20KT P6SM SCT250=

USA.gov is the U.S. government's official web portal to all federal, state and local government web resources and services.